createdAt,value
2023-01-23T00:01:32.386Z,101429.84
2023-01-23T00:04:01.001Z,101438.00
2023-01-23T00:06:29.514Z,101438.06
2023-01-23T00:08:58.008Z,101444.25
2023-01-23T00:11:30.030Z,101445.16
2023-01-23T00:13:58.829Z,101432.66
2023-01-23T00:16:29.699Z,101428.97
2023-01-23T00:18:58.261Z,101426.16
2023-01-23T00:21:28.369Z,101427.19
2023-01-23T00:23:58.209Z,101422.75
2023-01-23T00:26:33.289Z,101427.22
2023-01-23T00:29:01.415Z,101428.25
2023-01-23T00:31:32.033Z,101416.41
2023-01-23T00:34:01.930Z,101425.22
2023-01-23T00:36:31.966Z,101423.59
2023-01-23T00:39:00.297Z,101425.47
2023-01-23T00:41:30.055Z,101419.13
2023-01-23T00:43:58.010Z,101432.44
2023-01-23T00:46:26.557Z,101428.94
2023-01-23T00:48:54.525Z,101422.59
2023-01-23T00:51:22.793Z,101420.66
2023-01-23T00:53:51.107Z,101423.38
2023-01-23T00:56:19.083Z,101426.19
2023-01-23T00:58:48.594Z,101440.59
2023-01-23T01:01:17.546Z,101447.50
2023-01-23T01:03:46.510Z,101453.75
2023-01-23T01:06:14.678Z,101460.97
2023-01-23T01:08:42.662Z,101461.00
2023-01-23T01:11:10.571Z,101458.28
2023-01-23T01:13:38.664Z,101458.19
2023-01-23T01:16:12.556Z,101468.06
2023-01-23T01:18:41.070Z,101467.88
2023-01-23T01:21:13.487Z,101475.91
2023-01-23T01:23:45.410Z,101479.50
2023-01-23T01:26:14.471Z,101473.91
2023-01-23T01:28:43.759Z,101477.53
2023-01-23T01:31:15.121Z,101490.00
2023-01-23T01:33:44.604Z,101494.47
2023-01-23T01:36:13.421Z,101500.63
2023-01-23T01:38:42.247Z,101507.91
2023-01-23T01:41:12.193Z,101512.25
2023-01-23T01:43:40.620Z,101514.81
2023-01-23T01:46:18.204Z,101519.25
2023-01-23T01:48:52.232Z,101529.91
2023-01-23T01:51:25.203Z,101541.59
2023-01-23T01:54:09.022Z,101539.66
2023-01-23T01:56:42.547Z,101538.88
2023-01-23T01:59:12.325Z,101538.00
2023-01-23T02:01:45.379Z,101542.56
2023-01-23T02:04:13.549Z,101541.44
2023-01-23T02:06:41.874Z,101551.38
2023-01-23T02:09:16.326Z,101551.38
2023-01-23T02:11:45.373Z,101555.13
2023-01-23T02:14:14.579Z,101559.50
2023-01-23T02:16:50.520Z,101559.16
2023-01-23T02:19:32.436Z,101564.66
2023-01-23T02:22:10.338Z,101569.88
2023-01-23T02:24:45.859Z,101575.31
2023-01-23T02:27:15.335Z,101584.38
2023-01-23T02:29:45.803Z,101583.19
2023-01-23T02:32:13.924Z,101590.44
2023-01-23T02:34:43.882Z,101596.00
2023-01-23T02:37:12.191Z,101593.34
2023-01-23T02:39:40.751Z,101590.63
2023-01-23T02:42:15.262Z,101587.09
2023-01-23T02:44:48.299Z,101583.50
2023-01-23T02:47:19.198Z,101573.63
2023-01-23T02:49:47.214Z,101563.81
2023-01-23T02:52:15.952Z,101557.63
2023-01-23T02:54:43.987Z,101559.44
2023-01-23T02:57:12.092Z,101564.03
2023-01-23T02:59:59.409Z,101568.44
2023-01-23T03:02:27.858Z,101567.75
2023-01-23T03:04:55.841Z,101568.63
2023-01-23T03:07:23.845Z,101566.75
2023-01-23T03:09:51.952Z,101582.00
2023-01-23T03:12:19.942Z,101578.44
2023-01-23T03:14:53.801Z,101598.09
2023-01-23T03:17:22.498Z,101594.63
2023-01-23T03:19:50.849Z,101600.97
2023-01-23T03:22:18.848Z,101589.97
2023-01-23T03:24:46.864Z,101592.72
2023-01-23T03:27:15.198Z,101595.50
2023-01-23T03:30:03.038Z,101580.81
2023-01-23T03:32:31.398Z,101575.72
2023-01-23T03:35:00.104Z,101582.03
2023-01-23T03:37:28.174Z,101588.28
2023-01-23T03:40:15.440Z,101584.78
2023-01-23T03:42:44.399Z,101582.88
2023-01-23T03:45:16.872Z,101591.00
2023-01-23T03:47:45.038Z,101589.22
2023-01-23T03:50:13.283Z,101590.09
2023-01-23T03:52:41.419Z,101574.00
2023-01-23T03:55:10.904Z,101575.78
2023-01-23T03:57:40.268Z,101565.91
2023-01-23T04:00:19.754Z,101567.66
2023-01-23T04:03:01.656Z,101561.38
2023-01-23T04:05:30.589Z,101557.78
2023-01-23T04:07:58.701Z,101561.41
2023-01-23T04:10:27.435Z,101562.44
2023-01-23T04:13:00.480Z,101563.09
2023-01-23T04:15:32.835Z,101558.41
2023-01-23T04:18:02.135Z,101546.78
2023-01-23T04:20:30.921Z,101558.50
2023-01-23T04:22:59.703Z,101563.06
2023-01-23T04:25:30.462Z,101570.22
2023-01-23T04:27:58.629Z,101572.72
2023-01-23T04:30:26.942Z,101570.25
2023-01-23T04:32:57.694Z,101577.41
2023-01-23T04:35:25.754Z,101561.19
2023-01-23T04:37:53.844Z,101565.44
2023-01-23T04:40:22.243Z,101561.22
2023-01-23T04:42:54.936Z,101576.53
2023-01-23T04:45:46.616Z,101557.16
2023-01-23T04:48:54.826Z,101577.47
2023-01-23T04:51:24.336Z,101578.16
2023-01-23T04:53:52.450Z,101573.00
2023-01-23T04:56:20.521Z,101567.34
2023-01-23T04:58:49.938Z,101560.97
2023-01-23T05:01:23.327Z,101565.63
2023-01-23T05:03:57.416Z,101570.97
2023-01-23T05:06:25.638Z,101576.31
2023-01-23T05:08:56.561Z,101575.53
2023-01-23T05:11:30.467Z,101582.41
2023-01-23T05:13:59.297Z,101585.22
2023-01-23T05:16:27.645Z,101578.81
2023-01-23T05:19:15.960Z,101574.41
2023-01-23T05:21:44.577Z,101580.53
2023-01-23T05:24:17.345Z,101592.13
2023-01-23T05:26:46.346Z,101604.72
2023-01-23T05:29:15.121Z,101607.53
2023-01-23T05:31:53.015Z,101602.06
2023-01-23T05:34:40.716Z,101622.72
2023-01-23T05:37:17.839Z,101610.16
2023-01-23T05:39:50.565Z,101623.63
2023-01-23T05:42:19.611Z,101629.06
2023-01-23T05:44:53.808Z,101619.91
2023-01-23T05:47:48.377Z,101613.66
2023-01-23T05:50:22.765Z,101617.06
2023-01-23T05:52:51.080Z,101615.41
2023-01-23T05:55:20.186Z,101595.28
2023-01-23T05:57:50.129Z,101617.06
2023-01-23T06:00:53.536Z,101624.56
2023-01-23T06:03:44.099Z,101635.69
2023-01-23T06:06:32.724Z,101651.75
2023-01-23T06:09:00.967Z,101655.19
2023-01-23T06:11:28.997Z,101668.59
2023-01-23T06:13:57.787Z,101677.41
2023-01-23T06:16:25.914Z,101678.53
2023-01-23T06:18:54.353Z,101681.13
2023-01-23T06:21:22.326Z,101685.47
2023-01-23T06:23:51.752Z,101687.31
2023-01-23T06:26:20.035Z,101690.91
2023-01-23T06:28:48.203Z,101688.91
2023-01-23T06:31:16.295Z,101701.31
2023-01-23T06:33:51.621Z,101712.94
2023-01-23T06:36:22.254Z,101709.13
2023-01-23T06:38:52.361Z,101716.41
2023-01-23T06:41:25.975Z,101717.47
2023-01-23T06:43:55.463Z,101723.56
2023-01-23T06:46:27.126Z,101732.25
2023-01-23T06:48:55.738Z,101743.13
2023-01-23T06:51:24.490Z,101752.78
2023-01-23T06:53:54.411Z,101751.03
2023-01-23T06:56:23.838Z,101762.53
2023-01-23T06:58:53.677Z,101768.72
2023-01-23T07:01:30.801Z,101776.78
2023-01-23T07:04:19.325Z,101784.81
2023-01-23T07:06:50.972Z,101799.16
2023-01-23T07:34:29.934Z,101791.28
2023-01-23T07:36:58.008Z,101780.50
2023-01-23T07:39:26.358Z,101792.94
2023-01-23T07:41:54.619Z,101792.00
2023-01-23T07:44:24.317Z,101800.22
2023-01-23T07:46:52.563Z,101796.50
2023-01-23T07:49:21.109Z,101783.91
2023-01-23T07:51:50.524Z,101791.16
2023-01-23T07:54:18.762Z,101792.00
2023-01-23T07:56:46.919Z,101795.59
2023-01-23T07:59:15.407Z,101800.78
2023-01-23T08:01:43.398Z,101796.94
2023-01-23T08:04:11.689Z,101791.66
2023-01-23T08:06:39.896Z,101797.31
2023-01-23T08:09:09.565Z,101799.31
2023-01-23T08:11:37.570Z,101791.06
2023-01-23T08:14:05.738Z,101792.78
2023-01-23T08:16:33.891Z,101796.19
2023-01-23T08:19:02.296Z,101802.53
2023-01-23T08:21:30.433Z,101812.31
2023-01-23T08:23:58.779Z,101810.19
2023-01-23T08:26:29.052Z,101839.75
2023-01-23T08:28:57.137Z,101853.25
2023-01-23T08:31:25.243Z,101853.31
2023-01-23T08:33:53.566Z,101852.41
2023-01-23T08:36:21.728Z,101846.66
2023-01-23T08:38:49.737Z,101866.63
2023-01-23T08:41:17.865Z,101861.34
2023-01-23T08:43:47.672Z,101848.47
2023-01-23T08:46:15.781Z,101870.78
2023-01-23T08:48:44.277Z,101869.81
2023-01-23T08:51:14.410Z,101872.56
2023-01-23T08:53:44.279Z,101878.72
2023-01-23T08:56:16.991Z,101883.19
2023-01-23T08:58:45.924Z,101888.69
2023-01-23T09:01:18.013Z,101900.31
2023-01-23T09:03:46.358Z,101907.31
2023-01-23T09:06:15.365Z,101905.41
2023-01-23T09:08:44.271Z,101902.91
2023-01-23T09:11:14.760Z,101919.03
2023-01-23T09:13:43.619Z,101913.72
2023-01-23T09:16:12.077Z,101910.06
2023-01-23T09:18:41.950Z,101917.22
2023-01-23T09:21:12.678Z,101916.34
2023-01-23T09:23:41.518Z,101917.00
2023-01-23T09:26:12.102Z,101918.66
2023-01-23T09:28:43.040Z,101923.31
2023-01-23T09:31:17.543Z,101932.94
2023-01-23T09:33:50.049Z,101932.97
2023-01-23T09:36:18.336Z,101938.16
2023-01-23T09:38:48.947Z,101948.81
2023-01-23T09:41:20.712Z,101966.78
2023-01-23T09:43:59.271Z,101967.56
2023-01-23T09:46:34.016Z,101975.41
2023-01-23T09:49:12.255Z,101992.47
2023-01-23T09:51:52.797Z,102011.22
2023-01-23T09:54:36.729Z,102007.47
2023-01-23T09:57:13.557Z,102006.44
2023-01-23T09:59:58.781Z,102015.41
2023-01-23T10:02:29.645Z,102017.06
2023-01-23T10:05:02.921Z,102045.94
2023-01-23T10:07:46.307Z,102047.72
2023-01-23T10:10:50.637Z,102041.28
2023-01-23T10:13:24.291Z,102061.09
2023-01-23T10:16:15.237Z,102061.94
2023-01-23T10:18:49.537Z,102070.97
2023-01-23T10:21:27.071Z,102060.81
2023-01-23T10:24:05.000Z,102067.13
2023-01-23T10:26:40.142Z,102075.19
2023-01-23T10:29:16.969Z,102070.66
2023-01-23T10:31:49.645Z,102066.88
2023-01-23T10:34:25.050Z,102085.81
2023-01-23T10:37:08.803Z,102080.25
2023-01-23T10:39:46.766Z,102073.88
2023-01-23T10:42:19.394Z,102094.50
2023-01-23T10:44:47.835Z,102102.56
2023-01-23T10:47:22.699Z,102108.88
2023-01-23T10:49:51.368Z,102108.03
2023-01-23T10:52:36.633Z,102113.16
2023-01-23T10:55:07.533Z,102112.09
2023-01-23T10:57:48.584Z,102119.47
2023-01-23T11:00:26.244Z,102127.41
2023-01-23T11:02:54.903Z,102118.38
2023-01-23T11:05:51.874Z,102132.56
2023-01-23T11:08:29.134Z,102137.16
2023-01-23T11:11:19.966Z,102137.13
2023-01-23T11:13:50.396Z,102151.25
2023-01-23T11:16:21.630Z,102162.91
2023-01-23T11:18:54.769Z,102179.22
2023-01-23T11:21:24.426Z,102173.78
2023-01-23T11:24:10.180Z,102173.66
2023-01-23T11:26:39.866Z,102194.31
2023-01-23T11:29:30.576Z,102195.09
2023-01-23T11:32:03.008Z,102209.47
2023-01-23T11:34:39.493Z,102206.84
2023-01-23T11:37:16.761Z,102207.69
2023-01-23T11:39:54.939Z,102208.53
2023-01-23T11:42:28.376Z,102212.94
2023-01-23T11:45:00.156Z,102214.69
2023-01-23T11:47:55.305Z,102218.91
2023-01-23T11:50:49.894Z,102228.16
2023-01-23T11:53:41.087Z,102223.47
2023-01-23T11:56:26.062Z,102234.97
2023-01-23T11:59:24.852Z,102245.06
2023-01-23T12:02:12.470Z,102248.53
2023-01-23T12:05:07.885Z,102258.34
2023-01-23T12:07:47.287Z,102269.06
2023-01-23T12:10:24.752Z,102274.50
2023-01-23T12:13:12.062Z,102259.22
2023-01-23T12:15:48.368Z,102279.69
2023-01-23T12:18:34.220Z,102274.38
2023-01-23T12:21:10.664Z,102275.94
2023-01-23T12:23:57.637Z,102291.22
2023-01-23T12:26:29.655Z,102301.97
2023-01-23T12:29:31.558Z,102297.38
2023-01-23T12:32:13.593Z,102299.00
2023-01-23T12:35:03.736Z,102313.41
2023-01-23T12:37:52.306Z,102333.09
2023-01-23T12:40:26.242Z,102332.22
2023-01-23T12:43:00.745Z,102332.16
2023-01-23T12:45:32.404Z,102320.47
2023-01-23T12:48:07.983Z,102328.50
2023-01-23T12:50:42.086Z,102322.13
2023-01-23T12:53:13.568Z,102336.47
2023-01-23T12:55:54.171Z,102336.34
2023-01-23T12:58:23.512Z,102334.69
2023-01-23T13:01:02.903Z,102344.41
2023-01-23T13:03:52.616Z,102331.16
2023-01-23T13:06:52.089Z,102314.09
2023-01-23T13:09:28.819Z,102315.03
2023-01-23T13:12:11.600Z,102319.47
2023-01-23T13:17:38.763Z,102312.25
2023-01-23T13:20:47.571Z,102307.88
2023-01-23T13:23:27.448Z,102287.03
2023-01-23T13:26:29.156Z,102307.66
2023-01-23T13:29:02.167Z,102318.53
2023-01-23T13:31:46.915Z,102321.22
2023-01-23T13:34:42.052Z,102320.25
2023-01-23T13:37:51.405Z,102303.28
2023-01-23T13:40:25.141Z,102309.47
2023-01-23T13:42:53.429Z,102309.56
2023-01-23T13:45:27.587Z,102307.75
2023-01-23T14:21:41.419Z,102298.97
2023-01-23T14:24:23.397Z,102288.16
2023-01-23T14:26:53.400Z,102302.53
2023-01-23T14:29:23.108Z,102302.53
2023-01-23T14:31:52.194Z,102305.25
2023-01-23T14:34:21.800Z,102305.19
2023-01-23T14:36:53.526Z,102288.19
2023-01-23T14:39:27.323Z,102288.31
2023-01-23T14:41:59.069Z,102292.88
2023-01-23T14:44:31.637Z,102291.03
2023-01-23T14:47:01.819Z,102288.31
2023-01-23T14:49:32.656Z,102288.34
2023-01-23T14:52:02.213Z,102289.13
2023-01-23T14:54:36.718Z,102292.81
2023-01-23T14:57:09.633Z,102294.63
2023-01-23T14:59:41.473Z,102298.16
2023-01-23T15:02:27.541Z,102312.31
2023-01-23T15:05:09.641Z,102312.25
2023-01-23T15:07:44.925Z,102328.44
2023-01-23T15:10:20.643Z,102335.56
2023-01-23T15:12:58.952Z,102341.91
2023-01-23T15:15:28.262Z,102339.25
2023-01-23T15:17:59.863Z,102344.63
2023-01-23T15:20:38.441Z,102332.88
2023-01-23T15:23:28.629Z,102339.13
2023-01-23T15:26:25.135Z,102335.47
2023-01-23T15:28:55.839Z,102339.19
2023-01-23T15:31:28.336Z,102348.13
2023-01-23T15:33:58.429Z,102338.34
2023-01-23T15:36:29.136Z,102340.84
2023-01-23T15:38:59.819Z,102337.44
2023-01-23T15:41:46.551Z,102337.44
2023-01-23T15:44:16.415Z,102342.03
2023-01-23T15:46:44.594Z,102339.34
2023-01-23T15:49:24.389Z,102328.69
2023-01-23T15:51:53.723Z,102326.91
2023-01-23T15:54:25.605Z,102320.69
2023-01-23T15:57:07.042Z,102312.63
2023-01-23T15:59:37.285Z,102310.03
2023-01-23T16:02:05.984Z,102318.84
2023-01-23T16:04:34.210Z,102309.81
2023-01-23T16:07:07.507Z,102313.50
2023-01-23T16:09:38.639Z,102325.72
2023-01-23T16:12:17.932Z,102327.63
2023-01-23T16:14:46.627Z,102328.56
2023-01-23T16:17:16.989Z,102327.66
2023-01-23T16:19:45.915Z,102341.19
2023-01-23T16:22:17.167Z,102329.56
2023-01-23T16:24:46.562Z,102337.59
2023-01-23T16:27:23.115Z,102337.50
2023-01-23T16:29:51.264Z,102341.19
2023-01-23T16:32:20.221Z,102342.09
2023-01-23T16:34:49.074Z,102334.06
2023-01-23T16:37:19.927Z,102346.50
2023-01-23T16:39:48.773Z,102341.81
2023-01-23T16:42:22.699Z,102358.06
2023-01-23T16:44:51.682Z,102356.31
2023-01-23T16:47:20.092Z,102363.38
2023-01-23T16:49:53.619Z,102358.13
2023-01-23T16:52:27.540Z,102361.59
2023-01-23T16:54:56.363Z,102351.72
2023-01-23T16:57:28.375Z,102360.81
2023-01-23T16:59:56.601Z,102346.38
2023-01-23T17:02:30.576Z,102358.19
2023-01-23T17:04:58.724Z,102354.53
2023-01-23T17:07:26.766Z,102361.72
2023-01-23T17:09:55.108Z,102369.66
2023-01-23T17:12:28.606Z,102366.91
2023-01-23T17:14:57.142Z,102356.25
2023-01-23T17:17:30.532Z,102369.81
2023-01-23T17:19:59.088Z,102352.66
2023-01-23T17:22:30.654Z,102354.41
2023-01-23T17:24:58.883Z,102364.34
2023-01-23T17:27:28.369Z,102368.03
2023-01-23T17:29:56.589Z,102346.56
2023-01-23T17:32:30.594Z,102352.00
2023-01-23T17:35:01.825Z,102355.31
2023-01-23T17:37:30.965Z,102367.91
2023-01-23T17:39:59.026Z,102356.22
2023-01-23T17:42:28.905Z,102359.97
2023-01-23T17:44:56.979Z,102357.38
2023-01-23T17:47:25.806Z,102360.75
2023-01-23T17:49:55.380Z,102369.81
2023-01-23T17:52:24.924Z,102365.38
2023-01-23T17:54:54.486Z,102362.69
2023-01-23T17:57:22.990Z,102353.69
2023-01-23T17:59:55.653Z,102358.31
2023-01-23T18:02:28.619Z,102346.66
2023-01-23T18:04:57.213Z,102351.09
2023-01-23T18:07:25.333Z,102349.34
2023-01-23T18:09:55.509Z,102347.63
2023-01-23T18:12:31.924Z,102336.88
2023-01-23T18:15:12.898Z,102336.91
2023-01-23T18:17:48.976Z,102344.84
2023-01-23T18:20:23.972Z,102335.00
2023-01-23T18:22:52.840Z,102343.09
2023-01-23T18:25:24.074Z,102359.13
2023-01-23T18:27:55.477Z,102368.09
2023-01-23T18:30:47.809Z,102374.34
2023-01-23T18:33:46.901Z,102375.28
2023-01-23T18:36:28.414Z,102367.25
2023-01-23T18:39:10.784Z,102369.06
2023-01-23T18:41:44.001Z,102371.72
2023-01-23T18:44:20.645Z,102362.81
2023-01-23T18:46:50.773Z,102366.41
2023-01-23T18:49:31.978Z,102362.81
2023-01-23T18:52:09.085Z,102345.59
2023-01-23T18:54:43.474Z,102361.81
2023-01-23T18:57:23.729Z,102354.72
2023-01-23T18:59:58.941Z,102348.56
2023-01-23T19:02:37.985Z,102337.69
2023-01-23T19:05:23.723Z,102346.53
2023-01-23T19:07:52.290Z,102362.72
2023-01-23T19:34:21.239Z,102359.94
2023-01-23T19:36:49.355Z,102369.81
2023-01-23T19:39:17.405Z,102373.44
2023-01-23T19:41:48.674Z,102376.94
2023-01-23T19:44:18.137Z,102376.94
2023-01-23T19:46:46.216Z,102380.47
2023-01-23T19:49:15.245Z,102381.28
2023-01-23T19:51:44.688Z,102377.66
2023-01-23T19:54:14.603Z,102390.25
2023-01-23T19:56:42.757Z,102387.47
2023-01-23T19:59:11.537Z,102395.69
2023-01-23T20:01:41.151Z,102387.53
2023-01-23T20:04:13.379Z,102405.44
2023-01-23T20:06:42.749Z,102404.50
2023-01-23T20:09:14.360Z,102409.84
2023-01-23T20:11:42.426Z,102407.13
2023-01-23T20:14:10.296Z,102410.69
2023-01-23T20:16:40.430Z,102401.75
2023-01-23T20:19:08.809Z,102402.72
2023-01-23T20:21:36.773Z,102410.63
2023-01-23T20:24:07.262Z,102416.06
2023-01-23T20:26:37.548Z,102406.22
2023-01-23T20:29:06.755Z,102417.75
2023-01-23T20:31:36.053Z,102420.53
2023-01-23T20:34:04.052Z,102427.66
2023-01-23T20:36:32.015Z,102428.53
2023-01-23T20:38:59.923Z,102434.78
2023-01-23T20:41:27.867Z,102419.56
2023-01-23T20:43:57.165Z,102436.53
2023-01-23T20:46:26.815Z,102422.34
2023-01-23T20:48:54.845Z,102426.84
2023-01-23T20:51:22.745Z,102412.47
2023-01-23T20:53:50.314Z,102421.38
2023-01-23T20:56:19.766Z,102413.34
2023-01-23T20:59:07.014Z,102420.59
2023-01-23T21:01:52.706Z,102419.66
2023-01-23T21:04:21.126Z,102402.66
2023-01-23T21:06:49.369Z,102409.84
2023-01-23T21:09:17.775Z,102404.53
2023-01-23T21:11:45.736Z,102385.75
2023-01-23T21:14:14.299Z,102388.34
2023-01-23T21:16:43.726Z,102398.13
2023-01-23T21:19:11.701Z,102402.69
2023-01-23T21:21:40.006Z,102396.41
2023-01-23T21:24:08.856Z,102402.69
2023-01-23T21:26:37.966Z,102406.28
2023-01-23T21:29:07.211Z,102398.22
2023-01-23T21:31:37.092Z,102395.47
2023-01-23T21:34:09.297Z,102393.75
2023-01-23T21:36:38.048Z,102383.94
2023-01-23T21:39:09.436Z,102394.56
2023-01-23T21:41:38.338Z,102391.06
2023-01-23T21:44:06.471Z,102395.56
2023-01-23T21:46:34.352Z,102377.66
2023-01-23T21:49:02.235Z,102397.38
2023-01-23T21:51:32.535Z,102383.97
2023-01-23T21:54:00.547Z,102384.91
2023-01-23T21:56:28.514Z,102376.84
2023-01-23T21:58:56.489Z,102383.13
2023-01-23T22:01:36.149Z,102367.00
2023-01-23T22:04:06.174Z,102367.06
2023-01-23T22:06:36.799Z,102375.94
2023-01-23T22:09:05.419Z,102388.50
2023-01-23T22:11:33.754Z,102373.25
2023-01-23T22:14:01.917Z,102375.06
2023-01-23T22:16:46.985Z,102368.75
2023-01-23T22:19:16.935Z,102364.38
2023-01-23T22:21:46.826Z,102365.31
2023-01-23T22:24:15.332Z,102359.88
2023-01-23T22:26:43.679Z,102362.63
2023-01-23T22:29:12.832Z,102361.50
2023-01-23T22:31:40.836Z,102368.72
2023-01-23T22:34:08.831Z,102366.97
2023-01-23T22:36:36.722Z,102381.34
2023-01-23T22:39:06.079Z,102371.38
2023-01-23T22:41:34.325Z,102380.47
2023-01-23T22:44:02.304Z,102382.25
2023-01-23T22:46:32.099Z,102374.28
2023-01-23T22:49:00.219Z,102368.81
2023-01-23T22:51:29.382Z,102366.03
2023-01-23T22:53:58.446Z,102375.13
2023-01-23T22:56:29.204Z,102370.72
2023-01-23T22:58:57.688Z,102376.06
2023-01-23T23:01:27.070Z,102375.25
2023-01-23T23:03:57.131Z,102370.75
2023-01-23T23:06:25.175Z,102362.78
2023-01-23T23:08:53.414Z,102366.38
2023-01-23T23:11:23.248Z,102362.78
2023-01-23T23:13:52.577Z,102368.16
2023-01-23T23:16:23.352Z,102359.25
2023-01-23T23:18:52.695Z,102353.84
2023-01-23T23:21:23.485Z,102362.84
2023-01-23T23:23:52.196Z,102352.19
2023-01-23T23:26:20.438Z,102352.16
2023-01-23T23:28:48.243Z,102355.66
2023-01-23T23:31:17.708Z,102351.06
2023-01-23T23:33:45.685Z,102362.75
2023-01-23T23:36:13.487Z,102355.56
2023-01-23T23:38:41.447Z,102344.91
2023-01-23T23:41:12.300Z,102352.88
2023-01-23T23:43:40.435Z,102350.28
2023-01-23T23:46:09.528Z,102360.94
2023-01-23T23:48:39.783Z,102361.81
2023-01-23T23:51:10.095Z,102351.13
2023-01-23T23:53:38.098Z,102362.69
2023-01-23T23:56:07.696Z,102364.56
2023-01-23T23:58:36.756Z,102363.69
